This is the latest recevied weather packets stored in our database for station/object WX6YYZ. If no packets are shown the sender has not sent any weather packets the latest 10 day(s).
| Time | Temp. | Humidity | Pressure | Rain* | Wind** | Luminosity | Snow |
|---|---|---|---|---|---|---|---|
| 1777686011 | 21.67° C | 62% | 1011.5 hPa | 0 mm | - | - | - |
| 1777684111 | 22.22° C | 59% | 1011.2 hPa | 0 mm | - | - | - |
| 1777682573 | 23.33° C | 57% | 1011.2 hPa | 0 mm | - | - | - |
| 1777680009 | 24.44° C | 53% | 1011.2 hPa | 0 mm | - | - | - |
| 1777677870 | 25.56° C | 49% | 1011.2 hPa | 0 mm | - | - | - |
| 1777676000 | 25° C | 49% | 1011.5 hPa | 0 mm | - | - | - |
| 1777675097 | 25° C | 49% | 1011.5 hPa | 0 mm | - | - | - |
| 1777673592 | 25° C | 49% | 1012.2 hPa | 0 mm | - | - | - |
| 1777673291 | 25° C | 50% | 1012.2 hPa | 0 mm | - | - | - |
| 1777672388 | 25° C | 52% | 1012.5 hPa | 0 mm | - | - | - |
| 1777670219 | 24.44° C | 55% | 1012.9 hPa | 0 mm | - | - | - |
| 1777668984 | 23.33° C | 58% | 1012.9 hPa | 0 mm | - | - | - |
| 1777667779 | 22.22° C | 62% | 1013.2 hPa | 0 mm | - | - | - |
| 1777667447 | 22.22° C | 63% | 1013.2 hPa | 0 mm | - | - | - |
| 1777664676 | 20.56° C | 67% | 1013.9 hPa | 0 mm | - | - | - |
| 1777664375 | 20° C | 68% | 1013.9 hPa | 0 mm | - | - | - |
| 1777661509 | 18.33° C | 73% | 1014.6 hPa | 0 mm | - | - | - |
| 1777658374 | 17.22° C | 78% | 1015.2 hPa | 0 mm | - | - | - |
| 1777653765 | 15° C | 84% | 1015.2 hPa | 0 mm | - | - | - |
| 1777652862 | 15° C | 85% | 1015.2 hPa | 0 mm | - | - | - |
| 1777652530 | 15° C | 85% | 1015.2 hPa | 0 mm | - | - | - |
| 1777648192 | 14.44° C | 88% | 1015.2 hPa | 0 mm | - | - | - |
| 1777645949 | 13.89° C | 89% | 1014.9 hPa | 0 mm | - | - | - |
| 1777642876 | 13.33° C | 89% | 1014.6 hPa | 0 mm | - | - | - |
| 1777642576 | 13.33° C | 89% | 1014.6 hPa | 0 mm | - | - | - |
* Rain latest hour (hover to see other rain measurements)
** Current wind speed in m/s (hover to see current wind gust speed)